sensor_id;sensor_type;location;lat;lon;timestamp;P1;durP1;ratioP1;P2;durP2;ratioP2
79338;SDS011;68809;41.712;44.768;2023-04-24T00:00:46;10.43;;;5.10;;
79338;SDS011;68809;41.712;44.768;2023-04-24T00:03:13;8.52;;;4.75;;
79338;SDS011;68809;41.712;44.768;2023-04-24T00:05:39;8.83;;;5.03;;
79338;SDS011;68809;41.712;44.768;2023-04-24T00:08:07;8.57;;;4.72;;
79338;SDS011;68809;41.712;44.768;2023-04-24T00:10:33;7.85;;;4.40;;
79338;SDS011;68809;41.712;44.768;2023-04-24T00:13:00;9.40;;;4.70;;
79338;SDS011;68809;41.712;44.768;2023-04-24T00:15:26;9.38;;;4.82;;
79338;SDS011;68809;41.712;44.768;2023-04-24T00:17:53;9.77;;;4.90;;
79338;SDS011;68809;41.712;44.768;2023-04-24T00:20:20;8.07;;;4.70;;
79338;SDS011;68809;41.712;44.768;2023-04-24T00:22:46;9.30;;;4.65;;
79338;SDS011;68809;41.712;44.768;2023-04-24T00:25:13;9.57;;;5.10;;
79338;SDS011;68809;41.712;44.768;2023-04-24T00:27:39;7.93;;;4.60;;
79338;SDS011;68809;41.712;44.768;2023-04-24T00:30:06;8.57;;;4.70;;
79338;SDS011;68809;41.712;44.768;2023-04-24T00:32:32;12.07;;;5.28;;
79338;SDS011;68809;41.712;44.768;2023-04-24T00:34:59;10.40;;;5.47;;
79338;SDS011;68809;41.712;44.768;2023-04-24T00:37:25;10.30;;;5.80;;
79338;SDS011;68809;41.712;44.768;2023-04-24T00:39:51;9.65;;;5.40;;
79338;SDS011;68809;41.712;44.768;2023-04-24T00:42:18;10.00;;;5.47;;
79338;SDS011;68809;41.712;44.768;2023-04-24T00:44:44;9.07;;;5.22;;
79338;SDS011;68809;41.712;44.768;2023-04-24T00:47:10;9.05;;;5.10;;
79338;SDS011;68809;41.712;44.768;2023-04-24T00:49:37;8.48;;;5.30;;
79338;SDS011;68809;41.712;44.768;2023-04-24T00:52:03;8.88;;;4.88;;
79338;SDS011;68809;41.712;44.768;2023-04-24T00:54:33;8.20;;;4.60;;
79338;SDS011;68809;41.712;44.768;2023-04-24T00:56:59;8.80;;;4.90;;
79338;SDS011;68809;41.712;44.768;2023-04-24T00:59:26;8.85;;;5.10;;
79338;SDS011;68809;41.712;44.768;2023-04-24T01:01:53;9.32;;;5.55;;
79338;SDS011;68809;41.712;44.768;2023-04-24T01:04:19;11.85;;;6.25;;
79338;SDS011;68809;41.712;44.768;2023-04-24T01:06:47;10.83;;;6.30;;
79338;SDS011;68809;41.712;44.768;2023-04-24T01:09:14;11.65;;;6.10;;
79338;SDS011;68809;41.712;44.768;2023-04-24T01:11:41;12.63;;;7.00;;
79338;SDS011;68809;41.712;44.768;2023-04-24T01:14:08;11.05;;;6.13;;
79338;SDS011;68809;41.712;44.768;2023-04-24T01:16:35;10.23;;;5.90;;
79338;SDS011;68809;41.712;44.768;2023-04-24T01:19:04;10.83;;;6.03;;
79338;SDS011;68809;41.712;44.768;2023-04-24T01:21:33;10.90;;;6.25;;
79338;SDS011;68809;41.712;44.768;2023-04-24T01:24:02;10.32;;;5.93;;
79338;SDS011;68809;41.712;44.768;2023-04-24T01:26:30;14.10;;;6.25;;
79338;SDS011;68809;41.712;44.768;2023-04-24T01:28:56;11.35;;;6.43;;
79338;SDS011;68809;41.712;44.768;2023-04-24T01:31:22;12.07;;;6.57;;
79338;SDS011;68809;41.712;44.768;2023-04-24T01:33:49;12.25;;;6.38;;
79338;SDS011;68809;41.712;44.768;2023-04-24T01:36:16;12.48;;;6.97;;
79338;SDS011;68809;41.712;44.768;2023-04-24T01:38:43;11.35;;;5.93;;
79338;SDS011;68809;41.712;44.768;2023-04-24T01:41:10;13.05;;;6.40;;
79338;SDS011;68809;41.712;44.768;2023-04-24T01:43:36;12.03;;;6.97;;
79338;SDS011;68809;41.712;44.768;2023-04-24T01:46:02;12.63;;;6.88;;
79338;SDS011;68809;41.712;44.768;2023-04-24T01:48:29;14.63;;;7.50;;
79338;SDS011;68809;41.712;44.768;2023-04-24T01:50:56;13.52;;;6.68;;
79338;SDS011;68809;41.712;44.768;2023-04-24T01:53:23;13.85;;;6.88;;
79338;SDS011;68809;41.712;44.768;2023-04-24T01:55:49;12.83;;;6.97;;
79338;SDS011;68809;41.712;44.768;2023-04-24T01:58:15;14.18;;;7.38;;
79338;SDS011;68809;41.712;44.768;2023-04-24T02:00:42;12.38;;;7.10;;
79338;SDS011;68809;41.712;44.768;2023-04-24T02:03:08;14.88;;;7.68;;
79338;SDS011;68809;41.712;44.768;2023-04-24T02:05:34;13.57;;;7.53;;
79338;SDS011;68809;41.712;44.768;2023-04-24T02:08:03;14.83;;;7.47;;
79338;SDS011;68809;41.712;44.768;2023-04-24T02:10:29;15.48;;;7.80;;
79338;SDS011;68809;41.712;44.768;2023-04-24T02:12:59;13.95;;;7.00;;
79338;SDS011;68809;41.712;44.768;2023-04-24T02:15:26;12.95;;;7.18;;
79338;SDS011;68809;41.712;44.768;2023-04-24T02:17:53;13.50;;;7.50;;
79338;SDS011;68809;41.712;44.768;2023-04-24T02:20:19;13.07;;;7.27;;
79338;SDS011;68809;41.712;44.768;2023-04-24T02:22:45;13.05;;;7.57;;
79338;SDS011;68809;41.712;44.768;2023-04-24T02:25:11;14.00;;;7.50;;
79338;SDS011;68809;41.712;44.768;2023-04-24T02:27:37;16.20;;;7.55;;
79338;SDS011;68809;41.712;44.768;2023-04-24T02:30:05;15.23;;;7.90;;
79338;SDS011;68809;41.712;44.768;2023-04-24T02:32:33;14.50;;;7.60;;
79338;SDS011;68809;41.712;44.768;2023-04-24T02:34:59;15.05;;;8.45;;
79338;SDS011;68809;41.712;44.768;2023-04-24T02:37:26;15.32;;;8.18;;
79338;SDS011;68809;41.712;44.768;2023-04-24T02:39:52;16.00;;;8.15;;
79338;SDS011;68809;41.712;44.768;2023-04-24T02:42:18;14.23;;;7.97;;
79338;SDS011;68809;41.712;44.768;2023-04-24T02:44:44;16.60;;;8.70;;
79338;SDS011;68809;41.712;44.768;2023-04-24T02:47:11;16.80;;;8.60;;
79338;SDS011;68809;41.712;44.768;2023-04-24T02:49:37;16.67;;;8.55;;
79338;SDS011;68809;41.712;44.768;2023-04-24T02:52:04;16.85;;;8.95;;
79338;SDS011;68809;41.712;44.768;2023-04-24T02:54:31;18.20;;;8.88;;
79338;SDS011;68809;41.712;44.768;2023-04-24T02:56:58;16.93;;;8.90;;
79338;SDS011;68809;41.712;44.768;2023-04-24T02:59:24;15.20;;;8.68;;
79338;SDS011;68809;41.712;44.768;2023-04-24T03:01:52;16.23;;;8.63;;
79338;SDS011;68809;41.712;44.768;2023-04-24T03:04:19;16.02;;;8.75;;
79338;SDS011;68809;41.712;44.768;2023-04-24T03:06:45;14.80;;;8.27;;
79338;SDS011;68809;41.712;44.768;2023-04-24T03:09:12;17.97;;;8.67;;
79338;SDS011;68809;41.712;44.768;2023-04-24T03:11:38;16.17;;;8.93;;
79338;SDS011;68809;41.712;44.768;2023-04-24T03:14:07;16.80;;;9.30;;
79338;SDS011;68809;41.712;44.768;2023-04-24T03:16:33;17.58;;;9.45;;
79338;SDS011;68809;41.712;44.768;2023-04-24T03:19:00;16.70;;;9.00;;
79338;SDS011;68809;41.712;44.768;2023-04-24T03:21:29;16.80;;;9.03;;
79338;SDS011;68809;41.712;44.768;2023-04-24T03:23:56;18.92;;;9.32;;
79338;SDS011;68809;41.712;44.768;2023-04-24T03:26:22;15.60;;;8.52;;
79338;SDS011;68809;41.712;44.768;2023-04-24T03:29:03;17.27;;;8.57;;
79338;SDS011;68809;41.712;44.768;2023-04-24T03:31:29;18.13;;;9.13;;
79338;SDS011;68809;41.712;44.768;2023-04-24T03:33:57;18.00;;;9.17;;
79338;SDS011;68809;41.712;44.768;2023-04-24T03:36:23;18.10;;;9.57;;
79338;SDS011;68809;41.712;44.768;2023-04-24T03:38:50;19.02;;;9.40;;
79338;SDS011;68809;41.712;44.768;2023-04-24T03:41:28;20.80;;;10.02;;
79338;SDS011;68809;41.712;44.768;2023-04-24T03:44:16;17.13;;;9.60;;
79338;SDS011;68809;41.712;44.768;2023-04-24T03:46:42;19.00;;;10.13;;
79338;SDS011;68809;41.712;44.768;2023-04-24T03:49:08;19.88;;;10.38;;
79338;SDS011;68809;41.712;44.768;2023-04-24T03:51:38;22.80;;;11.32;;
79338;SDS011;68809;41.712;44.768;2023-04-24T03:54:19;19.85;;;10.10;;
79338;SDS011;68809;41.712;44.768;2023-04-24T03:56:45;18.80;;;10.43;;
79338;SDS011;68809;41.712;44.768;2023-04-24T03:59:12;20.20;;;10.60;;
79338;SDS011;68809;41.712;44.768;2023-04-24T04:01:41;19.42;;;10.70;;
79338;SDS011;68809;41.712;44.768;2023-04-24T04:04:13;20.98;;;10.80;;
79338;SDS011;68809;41.712;44.768;2023-04-24T04:06:39;22.30;;;11.45;;
79338;SDS011;68809;41.712;44.768;2023-04-24T04:09:06;20.30;;;10.88;;
79338;SDS011;68809;41.712;44.768;2023-04-24T04:11:33;20.27;;;10.50;;
79338;SDS011;68809;41.712;44.768;2023-04-24T04:13:59;24.35;;;11.30;;
79338;SDS011;68809;41.712;44.768;2023-04-24T04:16:25;25.30;;;11.38;;
79338;SDS011;68809;41.712;44.768;2023-04-24T04:18:57;21.42;;;10.90;;
79338;SDS011;68809;41.712;44.768;2023-04-24T04:21:24;22.92;;;11.95;;
79338;SDS011;68809;41.712;44.768;2023-04-24T04:24:01;18.80;;;10.20;;
79338;SDS011;68809;41.712;44.768;2023-04-24T04:26:33;21.90;;;11.50;;
79338;SDS011;68809;41.712;44.768;2023-04-24T04:29:04;22.58;;;10.38;;
79338;SDS011;68809;41.712;44.768;2023-04-24T04:31:35;21.20;;;10.73;;
79338;SDS011;68809;41.712;44.768;2023-04-24T04:34:07;22.55;;;11.75;;
79338;SDS011;68809;41.712;44.768;2023-04-24T04:36:34;18.83;;;9.97;;
79338;SDS011;68809;41.712;44.768;2023-04-24T04:39:14;20.23;;;9.18;;
79338;SDS011;68809;41.712;44.768;2023-04-24T04:41:52;20.08;;;9.27;;
79338;SDS011;68809;41.712;44.768;2023-04-24T04:44:22;19.95;;;8.68;;
79338;SDS011;68809;41.712;44.768;2023-04-24T04:47:02;18.00;;;8.60;;
79338;SDS011;68809;41.712;44.768;2023-04-24T04:49:33;17.00;;;8.70;;
79338;SDS011;68809;41.712;44.768;2023-04-24T04:52:01;16.05;;;7.85;;
79338;SDS011;68809;41.712;44.768;2023-04-24T04:54:41;17.35;;;7.95;;
79338;SDS011;68809;41.712;44.768;2023-04-24T04:57:17;13.98;;;7.18;;
79338;SDS011;68809;41.712;44.768;2023-04-24T04:59:44;13.23;;;7.10;;
79338;SDS011;68809;41.712;44.768;2023-04-24T05:02:17;14.93;;;6.70;;
79338;SDS011;68809;41.712;44.768;2023-04-24T05:04:43;14.80;;;7.30;;
79338;SDS011;68809;41.712;44.768;2023-04-24T05:07:11;13.00;;;6.35;;
79338;SDS011;68809;41.712;44.768;2023-04-24T05:09:41;13.43;;;6.55;;
79338;SDS011;68809;41.712;44.768;2023-04-24T05:12:09;11.68;;;6.22;;
79338;SDS011;68809;41.712;44.768;2023-04-24T05:14:46;10.80;;;6.03;;
79338;SDS011;68809;41.712;44.768;2023-04-24T05:17:13;13.20;;;5.43;;
79338;SDS011;68809;41.712;44.768;2023-04-24T05:19:39;11.95;;;5.38;;
79338;SDS011;68809;41.712;44.768;2023-04-24T05:22:07;9.90;;;4.88;;
79338;SDS011;68809;41.712;44.768;2023-04-24T05:24:42;11.88;;;6.15;;
79338;SDS011;68809;41.712;44.768;2023-04-24T05:27:15;10.63;;;5.50;;
79338;SDS011;68809;41.712;44.768;2023-04-24T05:29:42;14.15;;;5.65;;
79338;SDS011;68809;41.712;44.768;2023-04-24T05:32:09;10.98;;;5.20;;
79338;SDS011;68809;41.712;44.768;2023-04-24T05:34:35;11.60;;;5.40;;
79338;SDS011;68809;41.712;44.768;2023-04-24T05:37:02;12.25;;;5.03;;
79338;SDS011;68809;41.712;44.768;2023-04-24T05:39:29;12.90;;;5.90;;
79338;SDS011;68809;41.712;44.768;2023-04-24T05:41:55;10.80;;;5.70;;
79338;SDS011;68809;41.712;44.768;2023-04-24T05:44:23;10.90;;;5.20;;
79338;SDS011;68809;41.712;44.768;2023-04-24T05:46:50;9.32;;;5.05;;
79338;SDS011;68809;41.712;44.768;2023-04-24T05:49:17;12.38;;;5.20;;
79338;SDS011;68809;41.712;44.768;2023-04-24T05:51:45;9.70;;;4.70;;
79338;SDS011;68809;41.712;44.768;2023-04-24T05:54:11;11.00;;;5.22;;
79338;SDS011;68809;41.712;44.768;2023-04-24T05:56:38;10.70;;;4.63;;
79338;SDS011;68809;41.712;44.768;2023-04-24T05:59:06;9.05;;;4.90;;
79338;SDS011;68809;41.712;44.768;2023-04-24T06:01:34;11.02;;;5.43;;
79338;SDS011;68809;41.712;44.768;2023-04-24T06:04:10;13.17;;;5.43;;
79338;SDS011;68809;41.712;44.768;2023-04-24T06:06:39;12.55;;;4.88;;
79338;SDS011;68809;41.712;44.768;2023-04-24T06:09:05;12.45;;;5.43;;
79338;SDS011;68809;41.712;44.768;2023-04-24T06:11:33;14.30;;;5.05;;
79338;SDS011;68809;41.712;44.768;2023-04-24T06:14:00;10.32;;;4.65;;
79338;SDS011;68809;41.712;44.768;2023-04-24T06:16:40;12.17;;;5.10;;
79338;SDS011;68809;41.712;44.768;2023-04-24T06:19:19;11.38;;;4.85;;
79338;SDS011;68809;41.712;44.768;2023-04-24T06:21:46;12.07;;;4.78;;
79338;SDS011;68809;41.712;44.768;2023-04-24T06:24:14;11.95;;;4.63;;
79338;SDS011;68809;41.712;44.768;2023-04-24T06:26:41;9.95;;;4.80;;
79338;SDS011;68809;41.712;44.768;2023-04-24T06:29:08;12.30;;;5.00;;
79338;SDS011;68809;41.712;44.768;2023-04-24T06:31:35;11.20;;;4.78;;
79338;SDS011;68809;41.712;44.768;2023-04-24T06:34:03;10.55;;;5.03;;
79338;SDS011;68809;41.712;44.768;2023-04-24T06:36:30;11.15;;;4.30;;
79338;SDS011;68809;41.712;44.768;2023-04-24T06:38:57;8.82;;;4.50;;
79338;SDS011;68809;41.712;44.768;2023-04-24T06:41:23;9.13;;;4.10;;
79338;SDS011;68809;41.712;44.768;2023-04-24T06:43:50;10.77;;;4.25;;
79338;SDS011;68809;41.712;44.768;2023-04-24T06:46:16;13.15;;;4.30;;
79338;SDS011;68809;41.712;44.768;2023-04-24T06:48:43;11.73;;;4.70;;
79338;SDS011;68809;41.712;44.768;2023-04-24T06:51:09;10.52;;;4.78;;
79338;SDS011;68809;41.712;44.768;2023-04-24T06:53:36;9.83;;;4.80;;
79338;SDS011;68809;41.712;44.768;2023-04-24T06:56:02;9.27;;;4.30;;
79338;SDS011;68809;41.712;44.768;2023-04-24T06:58:30;10.82;;;4.10;;
79338;SDS011;68809;41.712;44.768;2023-04-24T07:00:56;10.20;;;4.10;;
79338;SDS011;68809;41.712;44.768;2023-04-24T07:03:22;7.90;;;4.28;;
79338;SDS011;68809;41.712;44.768;2023-04-24T07:05:49;10.23;;;4.50;;
79338;SDS011;68809;41.712;44.768;2023-04-24T07:08:15;10.63;;;4.10;;
79338;SDS011;68809;41.712;44.768;2023-04-24T07:10:43;10.80;;;4.32;;
79338;SDS011;68809;41.712;44.768;2023-04-24T07:13:10;8.85;;;4.18;;
79338;SDS011;68809;41.712;44.768;2023-04-24T07:15:36;10.50;;;4.35;;
79338;SDS011;68809;41.712;44.768;2023-04-24T07:18:03;9.73;;;4.67;;
79338;SDS011;68809;41.712;44.768;2023-04-24T07:20:29;9.75;;;4.40;;
79338;SDS011;68809;41.712;44.768;2023-04-24T07:22:56;12.63;;;5.10;;
79338;SDS011;68809;41.712;44.768;2023-04-24T07:25:22;11.32;;;4.97;;
79338;SDS011;68809;41.712;44.768;2023-04-24T07:27:48;12.93;;;4.93;;
79338;SDS011;68809;41.712;44.768;2023-04-24T07:30:14;9.73;;;4.27;;
79338;SDS011;68809;41.712;44.768;2023-04-24T07:32:40;10.60;;;4.60;;
79338;SDS011;68809;41.712;44.768;2023-04-24T07:35:07;11.18;;;5.07;;
79338;SDS011;68809;41.712;44.768;2023-04-24T07:37:35;12.80;;;4.95;;
79338;SDS011;68809;41.712;44.768;2023-04-24T07:40:02;10.35;;;4.95;;
79338;SDS011;68809;41.712;44.768;2023-04-24T07:42:30;12.17;;;5.27;;
79338;SDS011;68809;41.712;44.768;2023-04-24T07:44:56;13.63;;;4.65;;
79338;SDS011;68809;41.712;44.768;2023-04-24T07:47:23;9.57;;;5.32;;
79338;SDS011;68809;41.712;44.768;2023-04-24T07:49:49;12.05;;;5.00;;
79338;SDS011;68809;41.712;44.768;2023-04-24T07:52:15;10.65;;;5.07;;
79338;SDS011;68809;41.712;44.768;2023-04-24T07:54:42;12.73;;;5.30;;
79338;SDS011;68809;41.712;44.768;2023-04-24T07:57:08;13.00;;;5.65;;
79338;SDS011;68809;41.712;44.768;2023-04-24T07:59:34;13.02;;;5.30;;
79338;SDS011;68809;41.712;44.768;2023-04-24T08:02:01;12.43;;;5.38;;
79338;SDS011;68809;41.712;44.768;2023-04-24T08:04:27;12.07;;;5.50;;
79338;SDS011;68809;41.712;44.768;2023-04-24T08:06:53;11.67;;;5.50;;
79338;SDS011;68809;41.712;44.768;2023-04-24T08:09:20;12.18;;;5.80;;
79338;SDS011;68809;41.712;44.768;2023-04-24T08:11:46;14.43;;;5.90;;
79338;SDS011;68809;41.712;44.768;2023-04-24T08:14:12;13.85;;;5.43;;
79338;SDS011;68809;41.712;44.768;2023-04-24T08:16:38;12.85;;;5.93;;
79338;SDS011;68809;41.712;44.768;2023-04-24T08:19:05;13.67;;;6.03;;
79338;SDS011;68809;41.712;44.768;2023-04-24T08:21:31;11.77;;;5.90;;
79338;SDS011;68809;41.712;44.768;2023-04-24T08:23:58;14.55;;;5.60;;
79338;SDS011;68809;41.712;44.768;2023-04-24T08:26:24;13.50;;;5.63;;
79338;SDS011;68809;41.712;44.768;2023-04-24T08:28:50;11.60;;;5.50;;
79338;SDS011;68809;41.712;44.768;2023-04-24T08:31:16;11.10;;;5.23;;
79338;SDS011;68809;41.712;44.768;2023-04-24T08:33:42;13.93;;;6.07;;
79338;SDS011;68809;41.712;44.768;2023-04-24T08:36:10;12.75;;;5.55;;
79338;SDS011;68809;41.712;44.768;2023-04-24T08:38:36;15.00;;;5.80;;
79338;SDS011;68809;41.712;44.768;2023-04-24T08:41:04;12.30;;;5.82;;
79338;SDS011;68809;41.712;44.768;2023-04-24T08:43:30;13.83;;;5.87;;
79338;SDS011;68809;41.712;44.768;2023-04-24T08:45:59;14.10;;;5.90;;
79338;SDS011;68809;41.712;44.768;2023-04-24T08:48:26;15.35;;;6.13;;
79338;SDS011;68809;41.712;44.768;2023-04-24T08:50:52;11.45;;;6.05;;
79338;SDS011;68809;41.712;44.768;2023-04-24T08:53:19;15.60;;;6.55;;
79338;SDS011;68809;41.712;44.768;2023-04-24T08:55:46;16.63;;;6.07;;
79338;SDS011;68809;41.712;44.768;2023-04-24T08:58:15;13.10;;;5.80;;
79338;SDS011;68809;41.712;44.768;2023-04-24T09:00:42;11.52;;;6.13;;
79338;SDS011;68809;41.712;44.768;2023-04-24T09:03:16;14.40;;;6.00;;
79338;SDS011;68809;41.712;44.768;2023-04-24T09:05:46;15.40;;;6.60;;
79338;SDS011;68809;41.712;44.768;2023-04-24T09:08:15;18.00;;;6.93;;
79338;SDS011;68809;41.712;44.768;2023-04-24T09:10:43;14.85;;;6.20;;
79338;SDS011;68809;41.712;44.768;2023-04-24T09:13:10;14.85;;;6.20;;
79338;SDS011;68809;41.712;44.768;2023-04-24T09:15:37;16.75;;;6.88;;
79338;SDS011;68809;41.712;44.768;2023-04-24T09:18:04;18.10;;;6.65;;
79338;SDS011;68809;41.712;44.768;2023-04-24T09:20:31;17.23;;;6.27;;
79338;SDS011;68809;41.712;44.768;2023-04-24T09:23:01;29.27;;;9.25;;
79338;SDS011;68809;41.712;44.768;2023-04-24T09:25:34;15.60;;;6.65;;
79338;SDS011;68809;41.712;44.768;2023-04-24T09:28:04;11.40;;;5.90;;
79338;SDS011;68809;41.712;44.768;2023-04-24T09:30:32;13.43;;;6.38;;
79338;SDS011;68809;41.712;44.768;2023-04-24T09:33:12;15.73;;;6.20;;
79338;SDS011;68809;41.712;44.768;2023-04-24T09:35:41;14.27;;;6.60;;
79338;SDS011;68809;41.712;44.768;2023-04-24T09:38:09;16.45;;;6.90;;
79338;SDS011;68809;41.712;44.768;2023-04-24T09:40:36;15.07;;;6.40;;
79338;SDS011;68809;41.712;44.768;2023-04-24T09:43:03;14.88;;;6.93;;
79338;SDS011;68809;41.712;44.768;2023-04-24T09:45:36;17.20;;;6.70;;
79338;SDS011;68809;41.712;44.768;2023-04-24T09:48:03;18.45;;;6.82;;
79338;SDS011;68809;41.712;44.768;2023-04-24T09:50:30;16.90;;;7.10;;
79338;SDS011;68809;41.712;44.768;2023-04-24T09:53:05;16.13;;;7.07;;
79338;SDS011;68809;41.712;44.768;2023-04-24T09:55:35;16.33;;;7.22;;
79338;SDS011;68809;41.712;44.768;2023-04-24T09:58:05;15.23;;;6.27;;
79338;SDS011;68809;41.712;44.768;2023-04-24T10:00:33;14.43;;;6.82;;
79338;SDS011;68809;41.712;44.768;2023-04-24T10:03:00;17.02;;;7.35;;
79338;SDS011;68809;41.712;44.768;2023-04-24T10:05:32;12.50;;;6.78;;
79338;SDS011;68809;41.712;44.768;2023-04-24T10:08:01;14.73;;;7.15;;
79338;SDS011;68809;41.712;44.768;2023-04-24T10:10:34;15.10;;;7.37;;
79338;SDS011;68809;41.712;44.768;2023-04-24T10:13:07;15.38;;;6.78;;
79338;SDS011;68809;41.712;44.768;2023-04-24T10:15:38;17.50;;;7.50;;
79338;SDS011;68809;41.712;44.768;2023-04-24T10:18:06;13.48;;;6.80;;
79338;SDS011;68809;41.712;44.768;2023-04-24T10:20:33;12.80;;;6.03;;
79338;SDS011;68809;41.712;44.768;2023-04-24T10:23:00;13.87;;;6.57;;
79338;SDS011;68809;41.712;44.768;2023-04-24T10:25:28;21.95;;;10.80;;
79338;SDS011;68809;41.712;44.768;2023-04-24T10:27:58;16.45;;;7.13;;
79338;SDS011;68809;41.712;44.768;2023-04-24T10:30:27;14.57;;;6.78;;
79338;SDS011;68809;41.712;44.768;2023-04-24T10:32:54;15.77;;;7.00;;
79338;SDS011;68809;41.712;44.768;2023-04-24T10:35:21;17.93;;;7.17;;
79338;SDS011;68809;41.712;44.768;2023-04-24T10:37:56;14.88;;;6.57;;
79338;SDS011;68809;41.712;44.768;2023-04-24T10:40:30;13.90;;;6.63;;
79338;SDS011;68809;41.712;44.768;2023-04-24T10:42:58;12.95;;;6.20;;
79338;SDS011;68809;41.712;44.768;2023-04-24T10:45:25;18.70;;;8.23;;
79338;SDS011;68809;41.712;44.768;2023-04-24T10:50:25;17.20;;;6.45;;
79338;SDS011;68809;41.712;44.768;2023-04-24T10:52:53;14.30;;;6.90;;
79338;SDS011;68809;41.712;44.768;2023-04-24T10:58:36;12.23;;;7.28;;
79338;SDS011;68809;41.712;44.768;2023-04-24T11:01:06;18.17;;;7.40;;
79338;SDS011;68809;41.712;44.768;2023-04-24T11:03:33;13.38;;;6.43;;
79338;SDS011;68809;41.712;44.768;2023-04-24T11:08:44;13.73;;;6.75;;
79338;SDS011;68809;41.712;44.768;2023-04-24T11:11:12;13.93;;;5.90;;
79338;SDS011;68809;41.712;44.768;2023-04-24T11:19:06;19.45;;;9.32;;
79338;SDS011;68809;41.712;44.768;2023-04-24T11:21:41;11.05;;;6.35;;
79338;SDS011;68809;41.712;44.768;2023-04-24T11:26:47;17.63;;;7.30;;
79338;SDS011;68809;41.712;44.768;2023-04-24T11:29:14;18.52;;;7.53;;
79338;SDS011;68809;41.712;44.768;2023-04-24T11:31:41;17.05;;;7.88;;
79338;SDS011;68809;41.712;44.768;2023-04-24T11:34:15;15.75;;;7.97;;
79338;SDS011;68809;41.712;44.768;2023-04-24T11:36:42;17.05;;;8.40;;
79338;SDS011;68809;41.712;44.768;2023-04-24T11:39:12;17.33;;;8.80;;
79338;SDS011;68809;41.712;44.768;2023-04-24T11:41:38;17.35;;;8.27;;
79338;SDS011;68809;41.712;44.768;2023-04-24T11:44:08;18.25;;;8.73;;
79338;SDS011;68809;41.712;44.768;2023-04-24T11:46:35;15.40;;;8.48;;
79338;SDS011;68809;41.712;44.768;2023-04-24T11:49:03;18.38;;;9.10;;
79338;SDS011;68809;41.712;44.768;2023-04-24T11:51:29;21.73;;;9.87;;
79338;SDS011;68809;41.712;44.768;2023-04-24T11:53:57;19.48;;;8.95;;
79338;SDS011;68809;41.712;44.768;2023-04-24T11:56:24;18.13;;;8.77;;
79338;SDS011;68809;41.712;44.768;2023-04-24T11:58:53;18.05;;;9.15;;
79338;SDS011;68809;41.712;44.768;2023-04-24T12:01:22;17.35;;;9.00;;
79338;SDS011;68809;41.712;44.768;2023-04-24T12:03:49;22.57;;;9.17;;
79338;SDS011;68809;41.712;44.768;2023-04-24T12:06:17;23.73;;;10.48;;
79338;SDS011;68809;41.712;44.768;2023-04-24T12:08:47;22.05;;;10.38;;
79338;SDS011;68809;41.712;44.768;2023-04-24T12:11:14;20.77;;;10.13;;
79338;SDS011;68809;41.712;44.768;2023-04-24T12:13:43;20.77;;;9.65;;
79338;SDS011;68809;41.712;44.768;2023-04-24T12:16:10;19.43;;;9.60;;
79338;SDS011;68809;41.712;44.768;2023-04-24T12:18:41;18.85;;;9.45;;
79338;SDS011;68809;41.712;44.768;2023-04-24T12:21:18;23.63;;;10.50;;
79338;SDS011;68809;41.712;44.768;2023-04-24T12:23:46;24.63;;;10.73;;
79338;SDS011;68809;41.712;44.768;2023-04-24T12:26:16;21.25;;;10.98;;
79338;SDS011;68809;41.712;44.768;2023-04-24T12:28:46;19.30;;;10.50;;
79338;SDS011;68809;41.712;44.768;2023-04-24T12:31:13;21.55;;;11.20;;
79338;SDS011;68809;41.712;44.768;2023-04-24T12:33:40;22.02;;;11.35;;
79338;SDS011;68809;41.712;44.768;2023-04-24T12:36:06;23.63;;;11.68;;
79338;SDS011;68809;41.712;44.768;2023-04-24T12:38:35;24.20;;;11.95;;
79338;SDS011;68809;41.712;44.768;2023-04-24T12:41:06;21.73;;;11.27;;
79338;SDS011;68809;41.712;44.768;2023-04-24T12:43:34;25.42;;;11.98;;
79338;SDS011;68809;41.712;44.768;2023-04-24T12:46:01;21.60;;;10.82;;
79338;SDS011;68809;41.712;44.768;2023-04-24T12:48:28;19.33;;;9.40;;
79338;SDS011;68809;41.712;44.768;2023-04-24T12:50:54;16.15;;;9.30;;
79338;SDS011;68809;41.712;44.768;2023-04-24T12:53:22;15.37;;;8.27;;
79338;SDS011;68809;41.712;44.768;2023-04-24T12:55:52;18.13;;;7.88;;
79338;SDS011;68809;41.712;44.768;2023-04-24T12:58:19;16.17;;;7.78;;
79338;SDS011;68809;41.712;44.768;2023-04-24T13:00:46;16.35;;;7.28;;
79338;SDS011;68809;41.712;44.768;2023-04-24T13:03:13;20.35;;;7.60;;
79338;SDS011;68809;41.712;44.768;2023-04-24T13:05:40;14.67;;;6.73;;
79338;SDS011;68809;41.712;44.768;2023-04-24T13:08:07;12.23;;;6.53;;
79338;SDS011;68809;41.712;44.768;2023-04-24T13:10:34;14.40;;;6.68;;
79338;SDS011;68809;41.712;44.768;2023-04-24T13:13:00;16.60;;;6.85;;
79338;SDS011;68809;41.712;44.768;2023-04-24T13:15:27;13.30;;;7.03;;
79338;SDS011;68809;41.712;44.768;2023-04-24T13:17:53;13.50;;;7.13;;
79338;SDS011;68809;41.712;44.768;2023-04-24T13:20:19;15.77;;;7.30;;
79338;SDS011;68809;41.712;44.768;2023-04-24T13:22:46;12.85;;;6.57;;
79338;SDS011;68809;41.712;44.768;2023-04-24T13:25:12;12.40;;;5.07;;
79338;SDS011;68809;41.712;44.768;2023-04-24T13:27:42;11.30;;;5.65;;
79338;SDS011;68809;41.712;44.768;2023-04-24T13:30:10;11.73;;;6.90;;
79338;SDS011;68809;41.712;44.768;2023-04-24T13:32:36;13.93;;;7.32;;
79338;SDS011;68809;41.712;44.768;2023-04-24T13:35:03;13.88;;;6.97;;
79338;SDS011;68809;41.712;44.768;2023-04-24T13:37:33;13.52;;;7.03;;
79338;SDS011;68809;41.712;44.768;2023-04-24T13:39:59;15.05;;;8.05;;
79338;SDS011;68809;41.712;44.768;2023-04-24T13:42:26;19.13;;;8.70;;
79338;SDS011;68809;41.712;44.768;2023-04-24T13:44:52;19.05;;;8.68;;
79338;SDS011;68809;41.712;44.768;2023-04-24T13:47:19;14.75;;;8.20;;
79338;SDS011;68809;41.712;44.768;2023-04-24T13:49:46;16.83;;;8.50;;
79338;SDS011;68809;41.712;44.768;2023-04-24T13:52:12;15.75;;;8.80;;
79338;SDS011;68809;41.712;44.768;2023-04-24T13:54:39;15.00;;;8.87;;
79338;SDS011;68809;41.712;44.768;2023-04-24T13:57:05;17.55;;;8.98;;
79338;SDS011;68809;41.712;44.768;2023-04-24T13:59:32;17.83;;;8.85;;
79338;SDS011;68809;41.712;44.768;2023-04-24T14:01:58;15.23;;;9.27;;
79338;SDS011;68809;41.712;44.768;2023-04-24T14:04:24;20.60;;;8.73;;
79338;SDS011;68809;41.712;44.768;2023-04-24T14:06:51;18.00;;;9.47;;
79338;SDS011;68809;41.712;44.768;2023-04-24T14:09:17;20.42;;;9.80;;
79338;SDS011;68809;41.712;44.768;2023-04-24T14:11:44;17.92;;;9.80;;
79338;SDS011;68809;41.712;44.768;2023-04-24T14:14:10;19.27;;;9.90;;
79338;SDS011;68809;41.712;44.768;2023-04-24T14:16:37;19.25;;;9.65;;
79338;SDS011;68809;41.712;44.768;2023-04-24T14:19:03;22.10;;;10.53;;
79338;SDS011;68809;41.712;44.768;2023-04-24T14:21:31;22.77;;;12.02;;
79338;SDS011;68809;41.712;44.768;2023-04-24T14:23:57;21.80;;;11.15;;
79338;SDS011;68809;41.712;44.768;2023-04-24T14:26:23;22.85;;;11.40;;
79338;SDS011;68809;41.712;44.768;2023-04-24T14:28:50;21.15;;;11.82;;
79338;SDS011;68809;41.712;44.768;2023-04-24T14:31:19;23.53;;;12.17;;
79338;SDS011;68809;41.712;44.768;2023-04-24T14:33:45;31.52;;;15.70;;
79338;SDS011;68809;41.712;44.768;2023-04-24T14:36:11;32.95;;;15.63;;
79338;SDS011;68809;41.712;44.768;2023-04-24T14:38:38;38.55;;;18.40;;
79338;SDS011;68809;41.712;44.768;2023-04-24T14:41:04;36.40;;;17.40;;